• Join FlightAware (Why Join?)
  • Login
  • US Flag 
04:45PM EDT


 

Airport Tracker/Info


-or-


 

Live Flight TrackerFlight Track Log ✈ N498QS ✈ 25-Jun-2013 ✈ KBOS - TXKF / BDA

Flight Track Log - Related Links

Times and Time Zones

All times are in EDT time to prevent confusion due to time zone crossing. See the N498QS flight status page for this flight to view local times or setup timezone preferences in your user account.

Time Position Orientation Groundspeed Altitude Reporting Facility
EDT Latitude Longitude Course Direction KTS MPH feet Rate Location/Type
09:28AM 42.3167 -71.0000 160° South 222 255 2,300  Level KA90
09:29AM 42.3167 -70.9000 90° East 261 300 5,400 2,940 Climbing KA90
09:30AM 42.3333 -70.7833 79° East 297 342 8,500 2,580 Climbing KA90
09:31AM 42.2742 -70.6753 126° Southeast 319 367 11,000 2,100 Climbing Boston Center
09:32AM 42.1814 -70.6106 153° Southeast 330 380 13,100 2,220 Climbing Boston Center
09:33AM 42.0803 -70.5464 155° Southeast 371 427 15,500 2,220 Climbing Boston Center
09:34AM 41.9728 -70.4769 154° Southeast 397 457 17,600 1,920 Climbing Boston Center
09:35AM 41.8736 -70.4131 154° Southeast 427 491 19,400 1,680 Climbing Boston Center
09:36AM 41.7575 -70.3306 152° Southeast 442 509 21,000 1,440 Climbing Boston Center
09:37AM 41.5736 -70.2153 155° Southeast 458 527 23,200 1,440 Climbing New York Center
09:38AM 41.4525 -70.1386 155° Southeast 471 542 24,700 1,620 Climbing New York Center
09:39AM 41.3333 -70.0622 154° Southeast 476 548 26,500 1,380 Climbing New York Center
09:40AM 41.2244 -69.9558 144° Southeast 476 548 27,600 1,080 Climbing New York Center
09:41AM 41.1361 -69.8219 131° Southeast 475 547 28,700 960 Climbing New York Center
09:42AM 41.0475 -69.6883 131° Southeast 480 552 29,600 900 Climbing New York Center
09:43AM 40.9525 -69.5525 133° Southeast 491 565 30,600 960 Climbing New York Center
09:44AM 40.8639 -69.4194 131° Southeast 491 565 31,600 960 Climbing New York Center
09:45AM 40.7706 -69.2814 132° Southeast 491 565 32,600 660 Climbing New York Center
09:46AM 40.6753 -69.1522 134° Southeast 491 565 33,000 180 Climbing New York Center
09:47AM 40.5836 -69.0178 132° Southeast 491 565 33,000  Level New York Center
09:48AM 40.4881 -68.8864 134° Southeast 491 565 33,000  Level New York Center
09:49AM 40.3964 -68.7525 132° Southeast 491 565 33,000  Level New York Center
09:50AM 40.3003 -68.6192 133° Southeast 491 565 33,000  Level New York Center
09:51AM 40.2042 -68.4889 134° Southeast 491 565 33,000  Level New York Center
09:52AM 40.1078 -68.3561 133° Southeast 491 565 33,000  Level New York Center
09:53AM 40.0114 -68.2267 134° Southeast 491 565 33,000  Level New York Center
09:54AM 39.8931 -68.1442 152° Southeast 474 545 33,000  Level New York Center
09:55AM 39.7747 -68.0756 156° South 474 545 33,000  Level New York Center
09:56AM 39.6522 -68.0075 157° South 474 545 33,000  Level New York Center
09:57AM 39.5297 -67.9419 158° South 474 545 33,000  Level New York Center
09:58AM 39.4114 -67.8686 154° Southeast 474 545 33,000  Level New York Center
09:59AM 39.2908 -67.8039 157° South 474 545 33,000  Level New York Center
10:00AM 39.1686 -67.7444 159° South 474 545 33,000  Level New York Center
10:01AM 39.0478 -67.6692 154° Southeast 479 551 33,000  Level New York Center
10:02AM 38.9253 -67.6075 159° South 479 551 33,000  Level New York Center
10:03AM 38.8044 -67.5356 155° Southeast 479 551 33,000  Level New York Center
10:04AM 38.6797 -67.4692 157° South 479 551 33,000  Level New York Center
10:06AM 38.5551 -67.3994 156° South  Level FlightAware Approximate
10:08AM 38.8833 -67.5667 157° South 463 533 33,000  Level New York Oceanic (ODAPS)
10:13AM 37.7940 -66.9843 157° South  Level FlightAware Approximate
10:14AM 37.6852 -66.9258 157° South  Level FlightAware Approximate
10:15AM 37.3835 -66.7653 157° South 463 533 33,000  Level FlightAware Transoceanic
10:15AM 37.4500 -66.8167 157° South 475 547 33,000  Level New York Oceanic (ODAPS)
10:16AM 37.2583 -66.7000 157° South 463 533 33,000  Level FlightAware Transoceanic
10:17AM 37.1330 -66.6349 158° South 463 533 33,000  Level FlightAware Transoceanic
10:18AM 37.0077 -66.5700 158° South 463 533 33,000  Level FlightAware Transoceanic
10:19AM 36.8824 -66.5053 158° South 463 533 33,000  Level FlightAware Transoceanic
10:20AM 36.7570 -66.4409 158° South 463 533 33,000  Level FlightAware Transoceanic
10:21AM 36.6316 -66.3766 158° South 463 533 33,000  Level FlightAware Transoceanic
10:22AM 36.4735 -66.3050 157° South 475 547 33,000  Level FlightAware Transoceanic
10:23AM 36.3513 -66.2420 157° South 475 547 33,000  Level FlightAware Transoceanic
10:24AM 36.2291 -66.1792 158° South 475 547 33,000  Level FlightAware Transoceanic
10:25AM 36.1068 -66.1165 158° South 475 547 33,000  Level FlightAware Transoceanic
10:26AM 35.9845 -66.0540 158° South 475 547 33,000  Level FlightAware Transoceanic
10:27AM 35.8622 -65.9918 158° South 475 547 33,000  Level FlightAware Transoceanic
10:28AM 35.7398 -65.9297 158° South 475 547 33,000  Level FlightAware Transoceanic
10:29AM 35.6174 -65.8678 158° South 475 547 33,000  Level FlightAware Transoceanic
10:30AM 35.4950 -65.8062 158° South 475 547 33,000  Level FlightAware Transoceanic
10:31AM 35.3725 -65.7447 158° South 475 547 33,000  Level FlightAware Transoceanic
10:32AM 35.2500 -65.6833 164° South 475 547 33,000  Level FlightAware Transoceanic
10:32AM 35.2500 -65.6833 164° South 469 540 33,000  Level New York Oceanic (ODAPS)
10:33AM 35.1191 -65.6364 164° South 475 547 33,000  Level FlightAware Transoceanic
10:34AM 34.9882 -65.5896 164° South 475 547 33,000  Level FlightAware Transoceanic
10:35AM 34.8573 -65.5429 164° South 475 547 33,000  Level FlightAware Transoceanic
10:36AM 34.7264 -65.4964 164° South 475 547 33,000  Level FlightAware Transoceanic
10:37AM 34.5954 -65.4501 164° South 475 547 33,000  Level FlightAware Transoceanic
10:37AM 35.2500 -65.6833 160° South 469 540 33,000  Level New York Oceanic (ODAPS)
10:38AM 34.3733 -65.3718 164° South 469 540 33,000  Level FlightAware Transoceanic
10:38AM 35.2500 -65.6833 160° South 469 540 33,000  Level New York Oceanic (ODAPS)
10:39AM 34.2480 -65.3278 164° South 469 540 33,000 -3,840 Level FlightAware Transoceanic
10:39AM 35.2500 -65.6833 160° South 469 540 30,000  Descending New York Oceanic (ODAPS)
10:40AM 34.1227 -65.2840 164° South 469 540 33,000 1,680 Climbing FlightAware Transoceanic
10:41AM 33.9974 -65.2402 164° South 469 540 33,000  Level FlightAware Transoceanic
10:42AM 33.8720 -65.1966 164° South 469 540 33,000 -2,760 Level FlightAware Transoceanic
10:42AM 35.2500 -65.6833 160° South 469 540 29,000  Descending New York Oceanic (ODAPS)
10:43AM 33.8432 -65.0565 160° South 469 540 33,000 -1,380 Climbing FlightAware Transoceanic
10:43AM 35.2500 -65.6833 160° South 469 540 27,000  Descending New York Oceanic (ODAPS)
10:44AM 33.6595 -64.9763 160° South 469 540 33,000 2,760 Climbing FlightAware Transoceanic
10:45AM 33.5370 -64.9230 160° South 469 540 30,000 -1,500 Descending FlightAware Transoceanic
10:46AM 33.4144 -64.8698 160° South 469 540 30,000 -6,360 Level FlightAware Transoceanic
10:46AM 35.2500 -65.6833 160° South 469 540 22,000  Descending New York Oceanic (ODAPS)
10:47AM 33.2919 -64.8168 160° South 469 540 30,000 4,020 Climbing FlightAware Transoceanic
10:48AM 33.1693 -64.7640 160° South 469 540 29,000 -7,440 Descending FlightAware Transoceanic
10:48AM 35.2500 -65.6833 160° South 469 540 22,000  Descending New York Oceanic (ODAPS)
10:49AM 33.0467 -64.7113 160° South 469 540 29,000 -1,740 Climbing FlightAware Transoceanic
10:49AM 35.2500 -65.6833 160° South 469 540 19,000 -2,040 Descending New York Oceanic (ODAPS)
10:50AM 32.9240 -64.6588 160° South 469 540 27,000 6,900 Climbing FlightAware Transoceanic
10:51AM 32.8014 -64.6064 160° South 469 540 27,000 -2,520 Level FlightAware Transoceanic
10:52AM 32.6787 -64.5541 160° South 469 540 22,000 -8,460 Descending FlightAware Transoceanic
10:52AM 35.2500 -65.6833 160° South 469 540 15,200 -8,580 Descending New York Oceanic (ODAPS)
10:52AM 35.2500 -65.6833 160° South 469 540 13,600 11,280 Descending New York Oceanic (ODAPS)
10:53AM 32.5560 -64.5020 160° South 469 540 22,000 -1,800 Climbing FlightAware Transoceanic
10:53AM 35.2500 -65.6833 160° South 469 540 12,000  Descending New York Oceanic (ODAPS)
10:54AM 32.8514 -64.6277 160° South 469 540 22,000 8,940 Climbing FlightAware Transoceanic
10:55AM 32.7469 -64.5831 160° South 469 540 22,000 -1,500 Level FlightAware Transoceanic
10:56AM 32.6424 -64.5386 160° South 469 540 19,000 -10,860 Descending FlightAware Transoceanic
10:56AM 35.2500 -65.6833 160° South 469 540 6,800  Descending New York Oceanic (ODAPS)
10:57AM 32.5379 -64.4943 160° South 469 540 19,000 7,620 Climbing FlightAware Transoceanic
10:58AM 32.4333 -64.4500 187° South 469 540 19,000 -11,580 Level FlightAware Transoceanic
10:58AM 35.2500 -65.6833 160° South 469 540 4,000 -6,720 Descending New York Oceanic (ODAPS)
10:59AM 34.5632 -65.4399 164° South  Level FlightAware Approximate
11:00AM 34.5518 -65.4360 164° South  Level FlightAware Approximate
11:00AM 35.2500 -65.6833 160° South 469 540 2,000  Level New York Oceanic (ODAPS)
11:01AM 34.4516 -65.4010 164° South  Level FlightAware Approximate
11:02AM 34.6901 -65.4823 164° South  Level FlightAware Approximate
11:03AM 34.5899 -65.4473 164° South  Level FlightAware Approximate
11:04AM 34.6800 -65.4788 164° South  Level FlightAware Approximate
11:05AM 34.5799 -65.4439 164° South  Level FlightAware Approximate
11:06AM 34.7051 -65.4876 164° South  Level FlightAware Approximate
11:07AM 34.6049 -65.4526 164° South  Level FlightAware Approximate
11:08AM 34.5047 -65.4177 164° South  Level FlightAware Approximate
11:09AM 34.4045 -65.3829 164° South  Level FlightAware Approximate